createdAt,value
2023-04-17T00:02:19.344Z,12.00
2023-04-17T00:04:47.441Z,12.10
2023-04-17T00:07:16.960Z,12.00
2023-04-17T00:09:44.063Z,12.10
2023-04-17T00:12:16.091Z,12.10
2023-04-17T00:14:43.249Z,12.10
2023-04-17T00:17:15.009Z,12.10
2023-04-17T00:19:44.632Z,12.10
2023-04-17T00:22:16.297Z,12.10
2023-04-17T00:24:48.009Z,12.00
2023-04-17T00:27:17.640Z,12.00
2023-04-17T00:29:46.859Z,12.00
2023-04-17T00:32:16.483Z,12.00
2023-04-17T00:34:43.583Z,12.00
2023-04-17T00:37:13.171Z,12.00
2023-04-17T00:39:42.804Z,12.00
2023-04-17T00:42:09.885Z,12.00
2023-04-17T00:44:39.317Z,12.00
2023-04-17T00:47:08.884Z,12.00
2023-04-17T00:49:36.597Z,12.00
2023-04-17T00:52:08.770Z,12.00
2023-04-17T00:54:36.019Z,12.00
2023-04-17T00:57:03.564Z,12.00
2023-04-17T00:59:36.517Z,12.00
2023-04-17T01:02:06.011Z,12.00
2023-04-17T01:04:35.503Z,12.00
2023-04-17T01:07:05.174Z,12.00
2023-04-17T01:09:35.352Z,12.00
2023-04-17T01:12:25.556Z,12.00
2023-04-17T01:14:53.840Z,12.00
2023-04-17T01:17:26.245Z,12.00
2023-04-17T01:19:53.983Z,12.00
2023-04-17T01:22:21.420Z,12.00
2023-04-17T01:24:53.556Z,12.00
2023-04-17T01:27:22.498Z,12.00
2023-04-17T01:29:49.714Z,12.00
2023-04-17T01:32:19.112Z,12.00
2023-04-17T01:34:46.291Z,12.00
2023-04-17T01:37:15.886Z,12.00
2023-04-17T01:39:45.130Z,12.00
2023-04-17T01:42:14.753Z,12.00
2023-04-17T01:44:44.222Z,12.00
2023-04-17T01:47:14.027Z,12.00
2023-04-17T01:49:43.474Z,12.00
2023-04-17T01:52:10.681Z,12.00
2023-04-17T01:54:39.935Z,12.00
2023-04-17T01:57:11.410Z,12.00
2023-04-17T01:59:40.802Z,12.00
2023-04-17T02:02:10.121Z,12.00
2023-04-17T02:04:39.946Z,12.00
2023-04-17T02:07:09.794Z,12.00
2023-04-17T02:09:39.491Z,11.90
2023-04-17T02:12:06.959Z,11.90
2023-04-17T02:14:36.823Z,11.90
2023-04-17T02:17:03.976Z,11.90
2023-04-17T02:19:33.594Z,11.90
2023-04-17T02:22:05.692Z,11.90
2023-04-17T02:24:32.844Z,11.90
2023-04-17T02:27:00.225Z,11.90
2023-04-17T02:29:27.341Z,11.90
2023-04-17T02:31:54.471Z,11.90
2023-04-17T02:34:23.671Z,11.90
2023-04-17T02:36:51.076Z,11.90
2023-04-17T02:39:18.194Z,11.90
2023-04-17T02:41:49.896Z,11.90
2023-04-17T02:44:16.998Z,11.90
2023-04-17T02:46:46.688Z,11.90
2023-04-17T02:49:18.379Z,11.90
2023-04-17T02:51:52.292Z,11.90
2023-04-17T02:54:24.141Z,11.90
2023-04-17T02:56:53.555Z,11.90
2023-04-17T02:59:26.323Z,11.80
2023-04-17T03:01:53.797Z,11.80
2023-04-17T03:04:23.199Z,11.80
2023-04-17T03:06:53.036Z,11.80
2023-04-17T03:09:22.347Z,11.80
2023-04-17T03:11:52.096Z,11.80
2023-04-17T03:14:21.770Z,11.80
2023-04-17T03:16:56.016Z,11.80
2023-04-17T03:19:23.140Z,11.80
2023-04-17T03:21:52.503Z,11.80
2023-04-17T03:24:22.026Z,11.80
2023-04-17T03:26:51.253Z,11.80
2023-04-17T03:29:18.378Z,11.70
2023-04-17T03:31:45.552Z,11.80
2023-04-17T03:34:18.727Z,11.70
2023-04-17T03:36:52.934Z,11.70
2023-04-17T03:39:20.674Z,11.70
2023-04-17T03:41:52.309Z,11.70
2023-04-17T03:44:21.844Z,11.70
2023-04-17T03:46:48.934Z,11.70
2023-04-17T03:49:23.025Z,11.70
2023-04-17T03:51:52.322Z,11.70
2023-04-17T03:54:20.528Z,11.70
2023-04-17T03:56:48.615Z,11.60
2023-04-17T03:59:16.732Z,11.60
2023-04-17T04:01:46.520Z,11.60
2023-04-17T04:04:14.104Z,11.60
2023-04-17T04:06:42.758Z,11.60
2023-04-17T04:09:12.232Z,11.60
2023-04-17T04:11:39.549Z,11.60
2023-04-17T04:14:09.003Z,11.60
2023-04-17T04:16:36.274Z,11.60
2023-04-17T04:19:06.702Z,11.60
2023-04-17T04:21:38.703Z,11.60
2023-04-17T04:24:08.606Z,11.60
2023-04-17T04:26:41.013Z,11.60
2023-04-17T04:29:09.133Z,11.60
2023-04-17T04:31:39.017Z,11.60
2023-04-17T04:34:06.412Z,11.60
2023-04-17T04:36:42.071Z,11.60
2023-04-17T04:39:10.027Z,11.60
2023-04-17T04:41:38.195Z,11.60
2023-04-17T04:44:07.636Z,11.60
2023-04-17T04:46:37.042Z,11.60
2023-04-17T04:49:06.926Z,11.60
2023-04-17T04:51:35.358Z,11.60
2023-04-17T04:54:05.764Z,11.60
2023-04-17T04:56:33.120Z,11.60
2023-04-17T04:59:02.787Z,11.60
2023-04-17T05:01:32.491Z,11.50
2023-04-17T05:04:02.290Z,11.50
2023-04-17T05:06:29.546Z,11.50
2023-04-17T05:09:01.692Z,11.50
2023-04-17T05:11:29.390Z,11.50
2023-04-17T05:13:56.560Z,11.50
2023-04-17T05:16:31.003Z,11.40
2023-04-17T05:18:58.203Z,11.40
2023-04-17T05:21:30.979Z,11.40
2023-04-17T05:23:59.348Z,11.40
2023-04-17T05:26:28.687Z,11.40
2023-04-17T05:28:57.834Z,11.40
2023-04-17T05:31:27.290Z,11.40
2023-04-17T05:33:54.481Z,11.40
2023-04-17T05:36:24.816Z,11.40
2023-04-17T05:38:52.005Z,11.40
2023-04-17T05:41:19.152Z,11.40
2023-04-17T05:43:47.272Z,11.40
2023-04-17T05:46:15.528Z,11.40
2023-04-17T05:48:43.709Z,11.40
2023-04-17T05:51:13.610Z,11.40
2023-04-17T05:53:40.961Z,11.40
2023-04-17T05:56:10.701Z,11.40
2023-04-17T05:58:40.333Z,11.50
2023-04-17T06:01:18.356Z,11.50
2023-04-17T06:03:48.529Z,11.40
2023-04-17T06:06:15.950Z,11.40
2023-04-17T06:08:47.514Z,11.40
2023-04-17T06:11:17.230Z,11.40
2023-04-17T06:13:44.796Z,11.40
2023-04-17T06:16:14.272Z,11.40
2023-04-17T06:18:41.617Z,11.40
2023-04-17T06:21:11.231Z,11.50
2023-04-17T06:23:43.054Z,11.50
2023-04-17T06:26:15.170Z,11.50
2023-04-17T06:28:44.777Z,11.50
2023-04-17T06:31:14.047Z,11.40
2023-04-17T06:33:41.276Z,11.40
2023-04-17T06:36:12.804Z,11.40
2023-04-17T06:38:44.436Z,11.40
2023-04-17T06:41:14.543Z,11.40
2023-04-17T06:43:41.841Z,11.40
2023-04-17T06:46:09.066Z,11.40
2023-04-17T06:48:38.630Z,11.40
2023-04-17T06:51:08.261Z,11.40
2023-04-17T06:53:35.577Z,11.40
2023-04-17T06:56:05.299Z,11.40
2023-04-17T06:58:43.964Z,11.30
2023-04-17T07:01:14.663Z,11.30
2023-04-17T07:03:43.099Z,11.30
2023-04-17T07:06:10.567Z,11.30
2023-04-17T07:08:37.802Z,11.30
2023-04-17T07:11:08.096Z,11.30
2023-04-17T07:13:37.763Z,11.40
2023-04-17T07:16:06.361Z,11.30
2023-04-17T07:18:35.795Z,11.30
2023-04-17T07:21:05.846Z,11.40
2023-04-17T07:23:33.000Z,11.30
2023-04-17T07:26:02.465Z,11.40
2023-04-17T07:28:31.853Z,11.40
2023-04-17T07:30:58.943Z,11.40
2023-04-17T07:33:28.248Z,11.50
2023-04-17T07:35:57.985Z,11.50
2023-04-17T07:38:27.465Z,11.50
2023-04-17T07:40:54.564Z,11.50
2023-04-17T07:43:23.925Z,11.50
2023-04-17T07:45:51.104Z,11.50
2023-04-17T07:48:24.407Z,11.50
2023-04-17T07:50:54.007Z,11.50
2023-04-17T07:53:25.681Z,11.60
2023-04-17T07:55:58.426Z,11.50
2023-04-17T07:58:27.092Z,11.50
2023-04-17T08:00:57.402Z,11.50
2023-04-17T08:03:29.919Z,11.60
2023-04-17T08:06:02.195Z,11.60
2023-04-17T08:08:29.382Z,11.60
2023-04-17T08:10:58.706Z,11.60
2023-04-17T08:13:26.753Z,11.60
2023-04-17T08:16:01.598Z,11.70
2023-04-17T08:18:32.330Z,11.70
2023-04-17T08:21:04.339Z,11.70
2023-04-17T08:23:36.030Z,11.80
2023-04-17T08:26:05.482Z,11.70
2023-04-17T08:28:36.898Z,11.80
2023-04-17T08:31:08.742Z,11.80
2023-04-17T08:33:35.986Z,11.80
2023-04-17T08:36:07.248Z,11.80
2023-04-17T08:38:38.717Z,11.80
2023-04-17T08:41:10.181Z,11.80
2023-04-17T08:43:37.508Z,11.80
2023-04-17T08:46:05.145Z,11.80
2023-04-17T08:48:34.841Z,11.80
2023-04-17T08:51:04.343Z,11.80
2023-04-17T08:53:34.676Z,11.90
2023-04-17T08:56:08.292Z,11.90
2023-04-17T08:58:37.115Z,11.90
2023-04-17T09:01:11.291Z,11.90
2023-04-17T09:03:45.847Z,11.90
2023-04-17T09:06:16.440Z,12.00
2023-04-17T09:08:59.622Z,12.00
2023-04-17T09:11:33.543Z,12.00
2023-04-17T09:14:01.347Z,12.00
2023-04-17T09:16:29.197Z,12.00
2023-04-17T09:19:08.794Z,12.00
2023-04-17T09:21:41.145Z,12.10
2023-04-17T09:24:10.128Z,12.00
2023-04-17T09:26:39.573Z,12.00
2023-04-17T09:29:12.277Z,12.10
2023-04-17T09:31:42.380Z,12.10
2023-04-17T09:34:12.232Z,12.10
2023-04-17T09:36:43.774Z,12.10
2023-04-17T09:39:21.109Z,12.10
2023-04-17T09:41:48.398Z,12.10
2023-04-17T09:44:30.973Z,12.10
2023-04-17T09:47:01.396Z,12.10
2023-04-17T09:49:42.536Z,12.20
2023-04-17T09:52:15.624Z,12.20
2023-04-17T09:54:46.457Z,12.30
2023-04-17T09:57:13.752Z,12.30
2023-04-17T09:59:43.153Z,12.20
2023-04-17T10:02:14.440Z,12.20
2023-04-17T10:04:42.908Z,12.20
2023-04-17T10:07:13.248Z,12.30
2023-04-17T10:09:42.185Z,12.30
2023-04-17T10:12:17.584Z,12.30
2023-04-17T10:14:52.421Z,12.40
2023-04-17T10:17:34.382Z,12.40
2023-04-17T10:20:20.102Z,12.40
2023-04-17T10:22:54.774Z,12.50
2023-04-17T10:25:31.987Z,12.50
2023-04-17T10:28:03.072Z,12.50
2023-04-17T10:31:08.024Z,12.50
2023-04-17T10:33:54.146Z,12.50
2023-04-17T10:36:40.381Z,12.60
2023-04-17T10:39:18.333Z,12.60
2023-04-17T10:42:05.780Z,12.60
2023-04-17T10:44:41.286Z,12.70
2023-04-17T10:47:18.328Z,12.70
2023-04-17T10:49:48.439Z,12.70
2023-04-17T10:52:45.550Z,12.80
2023-04-17T10:55:20.891Z,12.80
2023-04-17T10:58:05.014Z,12.80
2023-04-17T11:00:49.535Z,13.00
2023-04-17T11:03:23.152Z,13.00
2023-04-17T11:05:51.933Z,13.10
2023-04-17T11:08:22.458Z,13.10
2023-04-17T11:11:00.466Z,13.20
2023-04-17T11:13:32.627Z,13.20
2023-04-17T11:15:59.887Z,13.20
2023-04-17T11:18:27.054Z,13.20
2023-04-17T11:20:57.250Z,13.20
2023-04-17T11:23:34.014Z,13.20
2023-04-17T11:26:01.453Z,13.20
2023-04-17T11:28:31.593Z,13.20
2023-04-17T11:31:00.905Z,13.20
2023-04-17T11:33:37.714Z,13.30
2023-04-17T11:36:06.478Z,13.30
2023-04-17T11:38:34.250Z,13.30
2023-04-17T11:41:05.986Z,13.40
2023-04-17T11:43:37.863Z,13.40
2023-04-17T11:46:05.372Z,13.50
2023-04-17T11:48:34.912Z,13.60
2023-04-17T11:51:05.286Z,13.70
2023-04-17T11:53:46.210Z,13.70
2023-04-17T11:56:19.738Z,13.80
2023-04-17T11:58:53.908Z,13.80
2023-04-17T12:01:27.836Z,13.90
2023-04-17T12:03:56.998Z,14.00
2023-04-17T12:06:24.906Z,14.00
2023-04-17T12:08:53.893Z,14.10
2023-04-17T12:11:31.251Z,14.10
2023-04-17T12:14:01.827Z,14.10
2023-04-17T12:16:29.784Z,14.10
2023-04-17T12:19:01.402Z,14.20
2023-04-17T12:21:32.981Z,14.20
2023-04-17T12:24:00.373Z,14.10
2023-04-17T12:26:30.140Z,14.00
2023-04-17T12:28:57.696Z,14.10
2023-04-17T12:31:29.369Z,14.10
2023-04-17T12:33:58.951Z,14.10
2023-04-17T12:36:28.494Z,14.10
2023-04-17T12:38:58.058Z,14.10
2023-04-17T12:41:26.760Z,14.10
2023-04-17T12:44:00.232Z,14.10
2023-04-17T12:46:30.594Z,14.10
2023-04-17T12:49:00.441Z,14.20
2023-04-17T12:51:38.071Z,14.20
2023-04-17T12:54:08.375Z,14.20
2023-04-17T12:56:35.894Z,14.20
2023-04-17T12:59:07.441Z,14.20
2023-04-17T13:01:37.081Z,14.30
2023-04-17T13:04:04.624Z,14.30
2023-04-17T13:06:32.506Z,14.40
2023-04-17T13:09:02.231Z,14.40
2023-04-17T13:11:32.414Z,14.40
2023-04-17T13:13:59.658Z,14.50
2023-04-17T13:16:27.034Z,14.40
2023-04-17T13:18:56.848Z,14.50
2023-04-17T13:21:23.944Z,14.50
2023-04-17T13:23:51.083Z,14.50
2023-04-17T13:26:20.878Z,14.60
2023-04-17T13:28:48.015Z,14.50
2023-04-17T13:31:17.530Z,14.50
2023-04-17T13:33:46.932Z,14.50
2023-04-17T13:36:14.101Z,14.60
2023-04-17T13:38:41.823Z,14.60
2023-04-17T13:41:14.029Z,14.70
2023-04-17T13:43:45.979Z,14.80
2023-04-17T13:46:16.184Z,14.80
2023-04-17T13:48:43.741Z,14.90
2023-04-17T13:51:13.829Z,14.90
2023-04-17T13:53:43.192Z,14.90
2023-04-17T13:56:12.851Z,14.90
2023-04-17T13:58:45.532Z,14.90
2023-04-17T14:01:15.389Z,15.00
2023-04-17T14:03:47.762Z,15.00
2023-04-17T14:06:20.354Z,15.00
2023-04-17T14:08:47.772Z,15.10
2023-04-17T14:11:15.468Z,15.10
2023-04-17T14:13:45.188Z,15.10
2023-04-17T14:16:15.176Z,15.10
2023-04-17T14:18:46.009Z,15.10
2023-04-17T14:21:13.199Z,15.10
2023-04-17T14:23:42.627Z,15.10
2023-04-17T14:26:12.884Z,15.20
2023-04-17T14:28:42.732Z,15.30
2023-04-17T14:31:09.944Z,15.30
2023-04-17T14:33:37.167Z,15.40
2023-04-17T14:36:05.942Z,15.40
2023-04-17T14:38:34.122Z,15.30
2023-04-17T14:41:03.896Z,15.40
2023-04-17T14:43:35.761Z,15.40
2023-04-17T14:46:05.075Z,15.40
2023-04-17T14:48:44.288Z,15.50
2023-04-17T14:53:49.212Z,15.70
2023-04-17T14:56:16.812Z,15.80
2023-04-17T14:58:43.891Z,15.80
2023-04-17T15:01:13.566Z,15.80
2023-04-17T15:03:46.848Z,15.90
2023-04-17T15:06:16.170Z,15.90
2023-04-17T15:08:48.458Z,16.00
2023-04-17T15:11:16.155Z,16.00
2023-04-17T15:13:43.307Z,16.00
2023-04-17T15:16:11.014Z,16.00
2023-04-17T15:18:44.883Z,16.00
2023-04-17T15:21:16.431Z,16.10
2023-04-17T15:23:45.609Z,16.20
2023-04-17T15:26:13.513Z,16.30
2023-04-17T15:28:45.670Z,16.40
2023-04-17T15:31:15.738Z,16.40
2023-04-17T15:33:42.873Z,16.40
2023-04-17T15:36:10.016Z,16.50
2023-04-17T15:38:41.851Z,16.40
2023-04-17T15:41:10.607Z,16.40
2023-04-17T15:43:38.531Z,16.40
2023-04-17T15:46:08.342Z,16.30
2023-04-17T15:48:37.819Z,16.30
2023-04-17T15:51:05.211Z,16.10
2023-04-17T15:53:37.141Z,16.20
2023-04-17T15:56:06.332Z,16.30
2023-04-17T15:58:35.915Z,16.30
2023-04-17T16:01:07.841Z,16.20
2023-04-17T16:03:40.956Z,16.30
2023-04-17T16:06:11.226Z,16.20
2023-04-17T16:08:41.026Z,16.30
2023-04-17T16:11:12.648Z,16.30
2023-04-17T16:13:42.235Z,16.30
2023-04-17T16:16:10.723Z,16.40
2023-04-17T16:18:37.916Z,16.50
2023-04-17T16:21:14.665Z,16.50
2023-04-17T16:23:41.938Z,16.50
2023-04-17T16:26:09.002Z,16.60
2023-04-17T16:28:36.142Z,16.60
2023-04-17T16:31:03.288Z,16.70
2023-04-17T16:33:30.423Z,16.70
2023-04-17T16:36:02.010Z,16.80
2023-04-17T16:38:31.722Z,16.90
2023-04-17T16:41:02.023Z,17.00
2023-04-17T16:43:33.810Z,17.00
2023-04-17T16:46:05.453Z,17.10
2023-04-17T16:48:35.590Z,17.10
2023-04-17T16:51:07.705Z,17.20
2023-04-17T16:53:37.161Z,17.20
2023-04-17T16:56:09.188Z,17.20
2023-04-17T16:58:39.670Z,17.30
2023-04-17T17:01:09.676Z,17.30
2023-04-17T17:03:43.488Z,17.40
2023-04-17T17:06:12.927Z,17.30
2023-04-17T17:08:46.843Z,17.30
2023-04-17T17:11:18.400Z,17.40
2023-04-17T17:13:51.724Z,17.40
2023-04-17T17:16:23.726Z,17.40
2023-04-17T17:18:53.462Z,17.30
2023-04-17T17:21:20.823Z,17.20
2023-04-17T17:23:50.422Z,17.20
2023-04-17T17:26:20.013Z,17.10
2023-04-17T17:28:51.246Z,17.10
2023-04-17T17:31:21.138Z,17.00
2023-04-17T17:33:54.990Z,17.00
2023-04-17T17:36:22.144Z,17.00
2023-04-17T17:38:55.568Z,17.10
2023-04-17T17:41:25.790Z,17.00
2023-04-17T17:43:55.980Z,17.00
2023-04-17T17:46:27.726Z,17.00
2023-04-17T17:48:59.182Z,17.00
2023-04-17T17:51:28.551Z,17.00
2023-04-17T17:53:55.771Z,16.90
2023-04-17T17:56:28.526Z,16.90
2023-04-17T17:58:58.136Z,16.90
2023-04-17T18:01:25.409Z,16.80
2023-04-17T18:03:53.341Z,16.80
2023-04-17T18:06:21.321Z,16.80
2023-04-17T18:08:48.759Z,16.70
2023-04-17T18:11:23.203Z,16.70
2023-04-17T18:13:50.797Z,16.70
2023-04-17T18:16:20.290Z,16.70
2023-04-17T18:18:47.433Z,16.70
2023-04-17T18:21:14.521Z,16.60
2023-04-17T18:23:41.668Z,16.60
2023-04-17T18:26:08.820Z,16.60
2023-04-17T18:28:38.689Z,16.60
2023-04-17T18:31:05.902Z,16.60
2023-04-17T18:33:33.076Z,16.50
2023-04-17T18:36:02.498Z,16.40
2023-04-17T18:38:29.544Z,16.40
2023-04-17T18:41:01.810Z,16.40
2023-04-17T18:43:29.034Z,16.30
2023-04-17T18:46:02.260Z,16.20
2023-04-17T18:48:32.121Z,16.20
2023-04-17T18:51:09.463Z,16.10
2023-04-17T18:53:39.186Z,16.10
2023-04-17T18:56:10.734Z,16.00
2023-04-17T18:58:40.618Z,16.00
2023-04-17T19:01:10.817Z,16.00
2023-04-17T19:03:42.641Z,15.90
2023-04-17T19:06:12.019Z,15.90
2023-04-17T19:08:45.560Z,15.80
2023-04-17T19:11:12.921Z,15.80
2023-04-17T19:13:42.316Z,15.70
2023-04-17T19:16:09.461Z,15.70
2023-04-17T19:18:36.638Z,15.60
2023-04-17T19:21:06.229Z,15.60
2023-04-17T19:23:37.050Z,15.60
2023-04-17T19:26:04.224Z,15.50
2023-04-17T19:28:31.371Z,15.50
2023-04-17T19:30:59.235Z,15.40
2023-04-17T19:33:28.551Z,15.40
2023-04-17T19:35:58.367Z,15.40
2023-04-17T19:38:28.498Z,15.30
2023-04-17T19:41:20.017Z,15.30
2023-04-17T19:43:54.213Z,15.30
2023-04-17T19:46:22.986Z,15.20
2023-04-17T19:48:55.296Z,15.10
2023-04-17T19:51:24.904Z,15.10
2023-04-17T19:53:54.539Z,15.00
2023-04-17T19:56:21.682Z,15.00
2023-04-17T19:58:48.777Z,14.90
2023-04-17T20:01:16.162Z,14.90
2023-04-17T20:03:45.864Z,14.80
2023-04-17T20:06:15.233Z,14.80
2023-04-17T20:08:45.152Z,14.70
2023-04-17T20:11:16.369Z,14.70
2023-04-17T20:13:43.474Z,14.60
2023-04-17T20:16:12.992Z,14.50
2023-04-17T20:18:41.606Z,14.50
2023-04-17T20:21:12.492Z,14.50
2023-04-17T20:23:39.608Z,14.50
2023-04-17T20:26:06.768Z,14.40
2023-04-17T20:28:36.115Z,14.40
2023-04-17T20:31:10.480Z,14.30
2023-04-17T20:33:37.726Z,14.30
2023-04-17T20:36:07.822Z,14.30
2023-04-17T20:38:37.154Z,14.30
2023-04-17T20:41:06.583Z,14.20
2023-04-17T20:43:35.975Z,14.20
2023-04-17T20:46:06.131Z,14.10
2023-04-17T20:48:35.522Z,14.10
2023-04-17T20:51:05.552Z,14.00
2023-04-17T20:53:37.417Z,14.00
2023-04-17T20:56:04.751Z,14.00
2023-04-17T20:58:34.156Z,13.90
2023-04-17T21:01:03.745Z,13.80
2023-04-17T21:03:31.398Z,13.80
2023-04-17T21:05:59.199Z,13.80
2023-04-17T21:08:28.840Z,13.70
2023-04-17T21:10:59.135Z,13.70
2023-04-17T21:13:31.346Z,13.60
2023-04-17T21:16:01.085Z,13.60
2023-04-17T21:18:30.705Z,13.50
2023-04-17T21:21:02.699Z,13.50
2023-04-17T21:23:34.467Z,13.40
2023-04-17T21:26:04.943Z,13.40
2023-04-17T21:28:36.835Z,13.40
2023-04-17T21:31:10.341Z,13.40
2023-04-17T21:33:40.147Z,13.40
2023-04-17T21:36:07.359Z,13.40
2023-04-17T21:38:34.487Z,13.40
2023-04-17T21:41:01.624Z,13.30
2023-04-17T21:43:31.679Z,13.30
2023-04-17T21:46:03.660Z,13.20
2023-04-17T21:48:30.842Z,13.20
2023-04-17T21:51:04.866Z,13.20
2023-04-17T21:53:37.359Z,13.20
2023-04-17T21:56:06.863Z,13.20
2023-04-17T21:58:34.280Z,13.20
2023-04-17T22:01:03.680Z,13.20
2023-04-17T22:03:30.858Z,13.20
2023-04-17T22:05:58.321Z,13.20
2023-04-17T22:08:25.495Z,13.30
2023-04-17T22:10:55.199Z,13.30
2023-04-17T22:13:24.311Z,13.30
2023-04-17T22:15:51.587Z,13.20
2023-04-17T22:18:23.508Z,13.20
2023-04-17T22:20:50.599Z,13.20
2023-04-17T22:23:20.047Z,13.20
2023-04-17T22:25:47.288Z,13.20
2023-04-17T22:28:14.388Z,13.20
2023-04-17T22:30:43.623Z,13.20
2023-04-17T22:33:10.771Z,13.20
2023-04-17T22:35:40.441Z,13.20
2023-04-17T22:38:09.694Z,13.20
2023-04-17T22:40:40.240Z,13.20
2023-04-17T22:43:07.394Z,13.10
2023-04-17T22:45:36.997Z,13.20
2023-04-17T22:48:06.758Z,13.20
2023-04-17T22:50:34.224Z,13.20
2023-04-17T22:53:01.342Z,13.10
2023-04-17T22:55:30.781Z,13.10
2023-04-17T22:58:01.937Z,13.10
2023-04-17T23:00:30.512Z,13.10
2023-04-17T23:02:58.171Z,13.00
2023-04-17T23:05:27.885Z,13.00
2023-04-17T23:07:54.980Z,13.00
2023-04-17T23:10:26.741Z,13.00
2023-04-17T23:12:56.402Z,12.90
2023-04-17T23:15:23.735Z,12.90
2023-04-17T23:17:53.317Z,12.90
2023-04-17T23:20:20.563Z,12.90
2023-04-17T23:22:47.681Z,12.90
2023-04-17T23:25:22.479Z,12.90
2023-04-17T23:27:49.606Z,12.80
2023-04-17T23:30:18.990Z,12.80
2023-04-17T23:32:51.035Z,12.70
2023-04-17T23:35:18.354Z,12.70
2023-04-17T23:37:51.659Z,12.70
2023-04-17T23:40:18.789Z,12.70
2023-04-17T23:42:45.922Z,12.70
2023-04-17T23:45:15.594Z,12.70
2023-04-17T23:47:42.701Z,12.70
2023-04-17T23:50:12.615Z,12.60
2023-04-17T23:52:39.711Z,12.60
2023-04-17T23:55:14.026Z,12.60
2023-04-17T23:57:45.898Z,12.60
